sensor_id;sensor_type;location;lat;lon;timestamp;temperature;humidity
26049;DHT22;13822;51.568;5.086;2023-08-12T04:48:23;20.70;99.90
26049;DHT22;13822;51.568;5.086;2023-08-12T05:21:05;20.40;99.90
26049;DHT22;13822;51.568;5.086;2023-08-12T05:32:48;20.20;99.90
26049;DHT22;13822;51.568;5.086;2023-08-12T05:37:52;20.20;99.90
26049;DHT22;13822;51.568;5.086;2023-08-12T05:42:54;20.10;99.90
26049;DHT22;13822;51.568;5.086;2023-08-12T05:47:57;20.10;99.90
26049;DHT22;13822;51.568;5.086;2023-08-12T05:52:59;20.10;99.90
26049;DHT22;13822;51.568;5.086;2023-08-12T05:58:01;20.10;99.90
26049;DHT22;13822;51.568;5.086;2023-08-12T06:03:03;20.00;99.90
26049;DHT22;13822;51.568;5.086;2023-08-12T06:08:05;20.00;99.90
26049;DHT22;13822;51.568;5.086;2023-08-12T06:13:07;20.00;99.90
26049;DHT22;13822;51.568;5.086;2023-08-12T06:18:09;20.00;99.90
26049;DHT22;13822;51.568;5.086;2023-08-12T06:23:12;20.00;99.90
26049;DHT22;13822;51.568;5.086;2023-08-12T06:28:14;19.90;99.90
26049;DHT22;13822;51.568;5.086;2023-08-12T06:33:16;19.90;99.90
26049;DHT22;13822;51.568;5.086;2023-08-12T06:38:18;19.90;99.90
26049;DHT22;13822;51.568;5.086;2023-08-12T06:43:20;19.80;99.90
26049;DHT22;13822;51.568;5.086;2023-08-12T06:48:21;19.90;99.90
26049;DHT22;13822;51.568;5.086;2023-08-12T06:53:24;19.90;99.90
26049;DHT22;13822;51.568;5.086;2023-08-12T06:58:27;19.80;99.90
26049;DHT22;13822;51.568;5.086;2023-08-12T07:03:29;19.90;99.90
26049;DHT22;13822;51.568;5.086;2023-08-12T07:08:31;19.90;99.90
26049;DHT22;13822;51.568;5.086;2023-08-12T07:13:34;19.90;99.90
26049;DHT22;13822;51.568;5.086;2023-08-12T07:18:36;19.90;99.90
26049;DHT22;13822;51.568;5.086;2023-08-12T07:23:37;20.00;99.90
26049;DHT22;13822;51.568;5.086;2023-08-12T07:28:44;20.00;99.90
26049;DHT22;13822;51.568;5.086;2023-08-12T07:33:46;20.00;99.90
26049;DHT22;13822;51.568;5.086;2023-08-12T07:38:48;20.00;99.90
26049;DHT22;13822;51.568;5.086;2023-08-12T07:43:50;20.00;99.90
26049;DHT22;13822;51.568;5.086;2023-08-12T07:48:52;20.00;99.90
26049;DHT22;13822;51.568;5.086;2023-08-12T07:53:54;20.10;99.90
26049;DHT22;13822;51.568;5.086;2023-08-12T07:58:56;20.10;99.90
26049;DHT22;13822;51.568;5.086;2023-08-12T08:03:58;20.10;99.90
26049;DHT22;13822;51.568;5.086;2023-08-12T08:09:00;20.10;99.90
26049;DHT22;13822;51.568;5.086;2023-08-12T08:14:05;20.10;99.90
26049;DHT22;13822;51.568;5.086;2023-08-12T08:19:07;20.10;99.90
26049;DHT22;13822;51.568;5.086;2023-08-12T08:24:14;20.20;99.90
26049;DHT22;13822;51.568;5.086;2023-08-12T08:29:16;20.20;99.90
26049;DHT22;13822;51.568;5.086;2023-08-12T08:34:18;20.00;99.90
26049;DHT22;13822;51.568;5.086;2023-08-12T08:39:20;19.90;99.90
26049;DHT22;13822;51.568;5.086;2023-08-12T08:44:23;19.70;99.90
26049;DHT22;13822;51.568;5.086;2023-08-12T08:49:25;19.70;99.90
26049;DHT22;13822;51.568;5.086;2023-08-12T08:54:27;19.70;99.90
26049;DHT22;13822;51.568;5.086;2023-08-12T08:59:29;19.90;99.90
26049;DHT22;13822;51.568;5.086;2023-08-12T09:04:31;19.70;99.90
26049;DHT22;13822;51.568;5.086;2023-08-12T09:09:33;19.70;99.90
26049;DHT22;13822;51.568;5.086;2023-08-12T09:14:36;19.70;99.90
26049;DHT22;13822;51.568;5.086;2023-08-12T09:19:38;19.50;99.90
26049;DHT22;13822;51.568;5.086;2023-08-12T09:24:40;19.50;99.90
26049;DHT22;13822;51.568;5.086;2023-08-12T09:29:44;19.50;99.90
26049;DHT22;13822;51.568;5.086;2023-08-12T09:34:47;19.60;99.90
26049;DHT22;13822;51.568;5.086;2023-08-12T09:39:50;19.80;99.90
26049;DHT22;13822;51.568;5.086;2023-08-12T09:44:53;19.80;99.90
26049;DHT22;13822;51.568;5.086;2023-08-12T09:49:55;19.90;99.90
26049;DHT22;13822;51.568;5.086;2023-08-12T09:54:57;20.00;99.90
26049;DHT22;13822;51.568;5.086;2023-08-12T09:59:59;20.10;99.90
26049;DHT22;13822;51.568;5.086;2023-08-12T10:05:02;20.10;99.90
26049;DHT22;13822;51.568;5.086;2023-08-12T10:10:05;20.10;99.90
26049;DHT22;13822;51.568;5.086;2023-08-12T10:15:09;20.20;99.90
26049;DHT22;13822;51.568;5.086;2023-08-12T10:20:16;20.30;99.90
26049;DHT22;13822;51.568;5.086;2023-08-12T10:25:22;20.30;99.90
26049;DHT22;13822;51.568;5.086;2023-08-12T10:30:33;20.40;99.90
26049;DHT22;13822;51.568;5.086;2023-08-12T10:35:48;20.40;99.90
26049;DHT22;13822;51.568;5.086;2023-08-12T10:40:50;20.60;99.90
26049;DHT22;13822;51.568;5.086;2023-08-12T10:45:52;21.00;99.90
26049;DHT22;13822;51.568;5.086;2023-08-12T10:50:55;21.20;99.90
26049;DHT22;13822;51.568;5.086;2023-08-12T10:56:00;21.30;99.90
26049;DHT22;13822;51.568;5.086;2023-08-12T11:01:03;21.40;99.90
26049;DHT22;13822;51.568;5.086;2023-08-12T11:06:13;21.60;99.90
26049;DHT22;13822;51.568;5.086;2023-08-12T11:11:18;21.70;99.90
26049;DHT22;13822;51.568;5.086;2023-08-12T11:16:34;21.90;99.90
26049;DHT22;13822;51.568;5.086;2023-08-12T11:21:37;22.20;99.90
26049;DHT22;13822;51.568;5.086;2023-08-12T11:26:40;22.60;99.90
26049;DHT22;13822;51.568;5.086;2023-08-12T11:31:43;22.90;99.90
26049;DHT22;13822;51.568;5.086;2023-08-12T11:36:45;23.10;99.90
26049;DHT22;13822;51.568;5.086;2023-08-12T11:41:47;23.40;99.90
26049;DHT22;13822;51.568;5.086;2023-08-12T11:46:51;23.60;99.90
26049;DHT22;13822;51.568;5.086;2023-08-12T11:51:53;23.90;99.90
26049;DHT22;13822;51.568;5.086;2023-08-12T11:56:55;24.10;99.90
26049;DHT22;13822;51.568;5.086;2023-08-12T12:02:01;24.20;99.90
26049;DHT22;13822;51.568;5.086;2023-08-12T12:07:03;24.40;99.90
26049;DHT22;13822;51.568;5.086;2023-08-12T12:12:22;24.40;99.90
26049;DHT22;13822;51.568;5.086;2023-08-12T12:17:27;24.50;99.90
26049;DHT22;13822;51.568;5.086;2023-08-12T12:22:29;24.70;99.90
26049;DHT22;13822;51.568;5.086;2023-08-12T12:27:34;25.20;99.90
26049;DHT22;13822;51.568;5.086;2023-08-12T12:32:36;25.80;99.90
26049;DHT22;13822;51.568;5.086;2023-08-12T12:37:39;26.30;99.90
26049;DHT22;13822;51.568;5.086;2023-08-12T12:42:41;26.70;99.90
26049;DHT22;13822;51.568;5.086;2023-08-12T12:47:43;27.20;99.90
26049;DHT22;13822;51.568;5.086;2023-08-12T12:52:45;27.50;94.90
26049;DHT22;13822;51.568;5.086;2023-08-12T12:57:46;27.70;99.50
26049;DHT22;13822;51.568;5.086;2023-08-12T13:02:48;28.10;99.90
26049;DHT22;13822;51.568;5.086;2023-08-12T13:07:50;28.30;99.90
26049;DHT22;13822;51.568;5.086;2023-08-12T13:12:52;28.10;99.90
26049;DHT22;13822;51.568;5.086;2023-08-12T13:17:54;27.80;99.90
26049;DHT22;13822;51.568;5.086;2023-08-12T13:22:56;27.30;95.40
26049;DHT22;13822;51.568;5.086;2023-08-12T13:27:58;26.90;98.50
26049;DHT22;13822;51.568;5.086;2023-08-12T13:33:02;26.60;97.30
26049;DHT22;13822;51.568;5.086;2023-08-12T13:38:04;26.50;95.60
26049;DHT22;13822;51.568;5.086;2023-08-12T13:43:07;26.80;99.90
26049;DHT22;13822;51.568;5.086;2023-08-12T13:48:09;27.50;95.00
26049;DHT22;13822;51.568;5.086;2023-08-12T13:53:11;27.80;86.50
26049;DHT22;13822;51.568;5.086;2023-08-12T13:58:13;27.60;90.60
26049;DHT22;13822;51.568;5.086;2023-08-12T14:03:15;27.60;93.10
26049;DHT22;13822;51.568;5.086;2023-08-12T14:08:17;27.90;91.60
26049;DHT22;13822;51.568;5.086;2023-08-12T14:13:19;28.40;92.40
26049;DHT22;13822;51.568;5.086;2023-08-12T14:18:21;28.80;88.90
26049;DHT22;13822;51.568;5.086;2023-08-12T14:23:22;29.10;79.20
26049;DHT22;13822;51.568;5.086;2023-08-12T14:28:24;29.30;74.70
26049;DHT22;13822;51.568;5.086;2023-08-12T14:33:26;28.80;72.90
26049;DHT22;13822;51.568;5.086;2023-08-12T14:38:30;28.80;79.20
26049;DHT22;13822;51.568;5.086;2023-08-12T14:43:34;29.20;73.80
26049;DHT22;13822;51.568;5.086;2023-08-12T14:48:36;29.40;70.90
26049;DHT22;13822;51.568;5.086;2023-08-12T14:53:38;29.60;70.80
26049;DHT22;13822;51.568;5.086;2023-08-12T14:58:40;29.60;67.40
26049;DHT22;13822;51.568;5.086;2023-08-12T15:03:42;29.20;66.90
26049;DHT22;13822;51.568;5.086;2023-08-12T15:08:44;28.40;74.90
26049;DHT22;13822;51.568;5.086;2023-08-12T15:13:46;27.80;70.50
26049;DHT22;13822;51.568;5.086;2023-08-12T15:18:48;28.00;75.00
26049;DHT22;13822;51.568;5.086;2023-08-12T15:23:50;28.30;70.90
26049;DHT22;13822;51.568;5.086;2023-08-12T15:28:52;28.40;73.90
26049;DHT22;13822;51.568;5.086;2023-08-12T15:33:54;28.50;73.90
26049;DHT22;13822;51.568;5.086;2023-08-12T15:38:56;28.70;75.00
26049;DHT22;13822;51.568;5.086;2023-08-12T15:43:59;28.80;75.60
26049;DHT22;13822;51.568;5.086;2023-08-12T15:49:01;28.70;76.00
26049;DHT22;13822;51.568;5.086;2023-08-12T15:54:03;28.60;72.00
26049;DHT22;13822;51.568;5.086;2023-08-12T15:59:06;28.60;73.20
26049;DHT22;13822;51.568;5.086;2023-08-12T16:04:08;28.10;82.60
26049;DHT22;13822;51.568;5.086;2023-08-12T16:09:10;27.80;75.80
26049;DHT22;13822;51.568;5.086;2023-08-12T16:14:19;27.90;91.70
26049;DHT22;13822;51.568;5.086;2023-08-12T16:19:21;27.70;73.10
26049;DHT22;13822;51.568;5.086;2023-08-12T16:24:23;27.80;72.80
26049;DHT22;13822;51.568;5.086;2023-08-12T16:29:25;27.60;72.50
26049;DHT22;13822;51.568;5.086;2023-08-12T16:34:27;27.10;76.50
26049;DHT22;13822;51.568;5.086;2023-08-12T16:39:29;26.70;77.30
26049;DHT22;13822;51.568;5.086;2023-08-12T16:44:31;26.60;76.80
26049;DHT22;13822;51.568;5.086;2023-08-12T16:49:33;26.60;76.00
26049;DHT22;13822;51.568;5.086;2023-08-12T16:54:35;26.50;78.80
26049;DHT22;13822;51.568;5.086;2023-08-12T16:59:37;26.50;77.50
26049;DHT22;13822;51.568;5.086;2023-08-12T17:04:39;26.30;77.00
26049;DHT22;13822;51.568;5.086;2023-08-12T17:09:41;25.90;76.50
26049;DHT22;13822;51.568;5.086;2023-08-12T17:14:46;25.50;79.00
26049;DHT22;13822;51.568;5.086;2023-08-12T17:19:48;25.30;79.50
26049;DHT22;13822;51.568;5.086;2023-08-12T17:24:50;25.30;85.00
26049;DHT22;13822;51.568;5.086;2023-08-12T17:29:52;25.30;80.80
26049;DHT22;13822;51.568;5.086;2023-08-12T17:34:54;25.20;78.80
26049;DHT22;13822;51.568;5.086;2023-08-12T17:39:56;25.00;74.80
26049;DHT22;13822;51.568;5.086;2023-08-12T17:45:01;24.90;72.50
26049;DHT22;13822;51.568;5.086;2023-08-12T17:50:03;24.70;75.70
26049;DHT22;13822;51.568;5.086;2023-08-12T17:55:07;24.50;74.50
26049;DHT22;13822;51.568;5.086;2023-08-12T18:00:25;24.40;76.20
26049;DHT22;13822;51.568;5.086;2023-08-12T18:05:27;24.20;71.90
26049;DHT22;13822;51.568;5.086;2023-08-12T18:10:29;23.90;73.60
26049;DHT22;13822;51.568;5.086;2023-08-12T18:15:31;23.70;76.60
26049;DHT22;13822;51.568;5.086;2023-08-12T18:20:33;23.60;80.30
26049;DHT22;13822;51.568;5.086;2023-08-12T18:25:35;23.40;79.70
26049;DHT22;13822;51.568;5.086;2023-08-12T18:30:37;23.30;81.30
26049;DHT22;13822;51.568;5.086;2023-08-12T18:35:40;23.10;81.40
26049;DHT22;13822;51.568;5.086;2023-08-12T18:40:42;22.90;83.60
26049;DHT22;13822;51.568;5.086;2023-08-12T18:45:44;22.70;82.30
26049;DHT22;13822;51.568;5.086;2023-08-12T18:50:46;22.60;83.90
26049;DHT22;13822;51.568;5.086;2023-08-12T18:55:48;22.40;84.90
26049;DHT22;13822;51.568;5.086;2023-08-12T19:00:50;22.20;82.10
26049;DHT22;13822;51.568;5.086;2023-08-12T19:05:58;22.00;82.60
26049;DHT22;13822;51.568;5.086;2023-08-12T19:11:00;21.90;87.50
26049;DHT22;13822;51.568;5.086;2023-08-12T19:16:02;21.80;84.00
26049;DHT22;13822;51.568;5.086;2023-08-12T19:21:04;21.60;85.90
26049;DHT22;13822;51.568;5.086;2023-08-12T19:26:08;21.50;87.80
